Aeroporto :
LOGIN :

Iscrizione | Disclaimer

   EN    FR    IT 

 










Sommario :    VFR   VFR Marginale   IFR   IFR Intensivo   IFR Molto Intensivo
Visibilità : 
Base nubi : 
>= 8 km
>= 3000ft
5 / 8 km
1000 / 3000 ft
1500m / 5 km
500 / 1000 ft
800 / 1500m
200 / 500 ft
< 800m
< 200 ft
Simboli :   Temporali  Nebbia  Neve Forte  Precipitazioni Forti  Vento > 20 kt
SIGMETs :   Varie  Temporali  Ghiacco  Turbolenza  Onda orograficha  Ceneri Vulcaniche






- Altitudine del aeroporto : 24 ft
- Codice IATA : SGD


EKSB - Sonderborg

ULTIMO METAR :
  • 011320Z AUTO 28013KT 9999NDV FEW020/// BKN055/// 08/04 Q1014

METARs OBSOLETI :
  • 011250Z AUTO 28011KT 240V300 9999NDV BKN044/// 08/05 Q1014
  • 011220Z AUTO 28014G25KT 240V310 7000NDV -SHRA BKN023/// BKN054/// BKN065/// 07/04 Q1015
  • 011150Z AUTO 26012KT 230V300 9999NDV -SHRA FEW020/// BKN053/// 08/04 Q1015
  • 011120Z 28013KT 240V300 9999 SCT020 BKN045 08/04 Q1015
  • 011050Z 27014KT 220V300 9999 BKN020 BKN050 08/04 Q1015

Previsioni scadute.



MetMap, La meteo Aeronautica in un colpo d'occhio ! - Copyright ORBIFLY Dicembre 2007 - Disclaimer

ORBIFLY MET'MAP TEAM :

Programmazione e sviluppo : Alexandra Zaïnal
Concezione : Baudouin d'Aumeries
Aiuto per la programmazione : Marc-Olivier Méhu
Supporto tecnico e logistico : Manuel Goepfert
Aiuto per la traduzione : Arnaldo La Scala

Contatto : metmap@orbifly.com




FONTI E CREDITI :

   NOAA